Time;durP1;ratioP1;P1;durP2;ratioP2;P2;SDS_P1;SDS_P2;PMS_P1;PMS_P2;Temp;Humidity;BMP_temperature;BMP_pressure;BME280_temperature;BME280_humidity;BME280_pressure;Samples;Min_cycle;Max_cycle;Signal;HPM_P1;HPM_P2
2023/11/28 00:00:45;;;;;;;10.30;7.73;;;5.30;99.90;;;;;;5071126;28;20487;-60
2023/11/28 00:03:11;;;;;;;12.23;8.67;;;5.30;99.90;;;;;;5075625;28;20440;-61
2023/11/28 00:05:40;;;;;;;10.13;8.40;;;5.30;99.90;;;;;;5075580;28;20468;-60
2023/11/28 00:08:07;;;;;;;12.73;8.47;;;5.20;99.90;;;;;;5075334;28;20567;-60
2023/11/28 00:10:33;;;;;;;11.60;9.47;;;5.20;99.90;;;;;;5075397;28;20465;-60
2023/11/28 00:13:00;;;;;;;11.10;8.67;;;5.20;99.90;;;;;;5075383;28;20448;-61
2023/11/28 00:15:27;;;;;;;9.67;8.67;;;5.20;99.90;;;;;;5075314;28;20464;-61
2023/11/28 00:17:53;;;;;;;9.03;8.10;;;5.10;99.90;;;;;;5075254;28;20444;-61
2023/11/28 00:20:20;;;;;;;9.60;8.50;;;5.20;99.90;;;;;;5075184;28;20461;-60
2023/11/28 00:22:48;;;;;;;12.00;8.40;;;5.20;99.90;;;;;;5074994;28;20440;-60
2023/11/28 00:25:18;;;;;;;7.87;7.03;;;5.10;99.90;;;;;;5075219;28;20448;-60
2023/11/28 00:27:45;;;;;;;9.27;7.50;;;5.10;99.90;;;;;;5075290;28;20440;-60
2023/11/28 00:30:13;;;;;;;9.20;8.30;;;5.10;99.90;;;;;;5076188;28;20487;-61
2023/11/28 00:32:39;;;;;;;17.87;11.27;;;5.00;99.90;;;;;;5074825;28;20448;-61
2023/11/28 00:35:08;;;;;;;14.90;10.83;;;5.00;99.90;;;;;;5074921;28;20520;-61
2023/11/28 00:37:34;;;;;;;17.37;12.50;;;5.00;99.90;;;;;;5074878;28;20498;-60
2023/11/28 00:40:06;;;;;;;13.63;10.33;;;5.00;99.90;;;;;;5074434;28;20453;-61
2023/11/28 00:42:33;;;;;;;10.57;8.90;;;5.00;99.90;;;;;;5074673;28;20426;-61
2023/11/28 00:45:00;;;;;;;10.07;8.07;;;5.00;99.90;;;;;;5074693;28;20467;-61
2023/11/28 00:47:27;;;;;;;12.03;8.77;;;5.00;99.90;;;;;;5074677;28;20826;-61
2023/11/28 00:49:53;;;;;;;12.50;9.33;;;4.90;99.90;;;;;;5074430;28;20496;-61
2023/11/28 00:52:20;;;;;;;11.70;8.17;;;4.90;99.90;;;;;;5074549;28;20453;-61
2023/11/28 00:54:47;;;;;;;9.40;8.40;;;4.80;99.90;;;;;;5074457;28;20440;-61
2023/11/28 00:57:15;;;;;;;10.87;8.03;;;4.80;99.90;;;;;;5074505;28;20455;-61
2023/11/28 00:59:42;;;;;;;10.57;9.10;;;4.80;99.90;;;;;;5073561;28;20457;-61
2023/11/28 01:02:09;;;;;;;9.00;8.10;;;4.90;99.90;;;;;;5073951;28;20444;-61
2023/11/28 01:04:36;;;;;;;8.60;7.80;;;4.80;99.90;;;;;;5074212;28;20479;-61
2023/11/28 01:07:02;;;;;;;8.80;7.60;;;4.80;99.90;;;;;;5074139;28;20447;-61
2023/11/28 01:09:29;;;;;;;9.40;7.97;;;4.80;99.90;;;;;;5074078;28;20489;-61
2023/11/28 01:11:57;;;;;;;9.70;8.40;;;4.80;99.90;;;;;;5074010;28;20449;-61
2023/11/28 01:14:25;;;;;;;8.70;7.80;;;4.80;99.90;;;;;;5073719;28;20460;-61
2023/11/28 01:16:51;;;;;;;8.00;7.20;;;4.80;99.90;;;;;;5073772;28;20441;-61
2023/11/28 01:19:18;;;;;;;10.10;7.80;;;4.80;99.90;;;;;;5073874;28;20457;-61
2023/11/28 01:21:45;;;;;;;10.03;7.50;;;4.80;99.90;;;;;;5073931;28;20436;-61
2023/11/28 01:24:11;;;;;;;7.43;6.73;;;4.80;99.90;;;;;;5073807;28;20436;-61
2023/11/28 01:26:38;;;;;;;12.33;6.93;;;4.80;99.90;;;;;;5073844;28;20441;-61
2023/11/28 01:29:05;;;;;;;9.80;7.63;;;4.80;99.90;;;;;;5073703;28;20472;-61
2023/11/28 01:31:33;;;;;;;8.97;7.93;;;4.80;99.90;;;;;;5073724;28;20502;-61
2023/11/28 01:33:59;;;;;;;8.43;6.83;;;4.80;99.90;;;;;;5073890;28;20459;-61
2023/11/28 01:36:26;;;;;;;9.67;6.97;;;4.90;99.90;;;;;;5073869;28;20451;-60
2023/11/28 01:38:53;;;;;;;7.17;6.47;;;4.80;99.90;;;;;;5073492;28;20443;-61
2023/11/28 01:41:19;;;;;;;7.00;6.40;;;4.80;99.90;;;;;;5073740;28;20563;-60
2023/11/28 01:43:46;;;;;;;7.13;6.40;;;4.90;99.90;;;;;;5073576;28;20448;-60
2023/11/28 01:46:13;;;;;;;8.20;7.40;;;4.90;99.90;;;;;;5073315;28;20455;-61
2023/11/28 01:48:41;;;;;;;6.87;6.03;;;4.90;99.90;;;;;;5074048;28;20476;-60
2023/11/28 01:51:09;;;;;;;5.87;5.27;;;4.80;99.90;;;;;;5073698;28;20467;-60
2023/11/28 01:53:37;;;;;;;5.97;5.43;;;4.80;99.90;;;;;;5073617;28;20448;-60
2023/11/28 01:56:04;;;;;;;6.87;6.27;;;4.80;99.90;;;;;;5073508;28;20452;-61
2023/11/28 01:58:31;;;;;;;6.70;6.00;;;4.90;99.90;;;;;;5073529;28;20445;-60
2023/11/28 02:00:59;;;;;;;6.27;5.67;;;4.90;99.90;;;;;;5074144;28;20457;-60
2023/11/28 02:03:27;;;;;;;6.13;5.13;;;4.90;99.90;;;;;;5073385;28;20478;-60
2023/11/28 02:05:56;;;;;;;5.80;5.30;;;4.90;99.90;;;;;;5074566;28;20444;-60
2023/11/28 02:08:23;;;;;;;5.60;5.10;;;4.90;99.90;;;;;;5075249;28;20443;-60
2023/11/28 02:10:50;;;;;;;8.80;5.90;;;4.90;99.90;;;;;;5073805;28;20529;-60
2023/11/28 02:13:16;;;;;;;6.47;4.60;;;4.90;99.90;;;;;;5073465;28;20934;-60
2023/11/28 02:15:45;;;;;;;4.37;4.03;;;4.90;99.90;;;;;;5073819;28;20482;-60
2023/11/28 02:18:13;;;;;;;4.63;4.13;;;4.90;99.90;;;;;;5073528;28;20498;-60
2023/11/28 02:20:40;;;;;;;4.73;4.20;;;4.90;99.90;;;;;;5073114;28;20460;-61
2023/11/28 02:23:09;;;;;;;4.30;4.00;;;4.80;99.90;;;;;;5073114;28;20448;-61
2023/11/28 02:25:44;;;;;;;4.10;3.80;;;4.90;99.90;;;;;;5073473;28;20445;-61
2023/11/28 02:28:17;;;;;;;4.30;4.00;;;4.90;99.90;;;;;;5073405;28;20478;-60
2023/11/28 02:30:47;;;;;;;3.87;3.57;;;4.90;99.90;;;;;;5073240;28;20484;-60
2023/11/28 02:33:14;;;;;;;4.03;3.73;;;4.90;99.90;;;;;;5072760;28;20433;-60
2023/11/28 02:35:40;;;;;;;4.07;3.77;;;4.90;99.90;;;;;;5073412;28;20441;-60
2023/11/28 02:38:07;;;;;;;4.77;4.43;;;4.80;99.90;;;;;;5073100;28;20486;-60
2023/11/28 02:40:34;;;;;;;4.30;4.00;;;4.80;99.90;;;;;;5073132;28;20457;-60
2023/11/28 02:43:00;;;;;;;4.93;4.60;;;4.80;99.90;;;;;;5073091;28;20448;-60
2023/11/28 02:45:28;;;;;;;4.77;4.37;;;4.80;99.90;;;;;;5073086;28;20445;-60
2023/11/28 02:47:55;;;;;;;5.10;4.70;;;4.80;99.90;;;;;;5072859;28;20498;-60
2023/11/28 02:50:22;;;;;;;5.37;4.97;;;4.80;99.90;;;;;;5072863;28;20484;-60
2023/11/28 02:52:48;;;;;;;5.07;4.67;;;4.80;99.90;;;;;;5072971;28;20456;-60
2023/11/28 02:55:16;;;;;;;4.97;4.57;;;4.80;99.90;;;;;;5072867;28;20437;-61
2023/11/28 02:57:42;;;;;;;4.93;4.50;;;4.80;99.90;;;;;;5075512;28;20487;-60
2023/11/28 03:00:10;;;;;;;4.90;4.50;;;4.80;99.90;;;;;;5064218;28;20862;-61
2023/11/28 03:02:38;;;;;;;4.50;4.20;;;4.80;99.90;;;;;;5056677;28;20469;-60
2023/11/28 03:05:06;;;;;;;5.90;5.40;;;4.80;99.90;;;;;;5055614;28;20446;-60
2023/11/28 03:07:33;;;;;;;5.73;5.20;;;4.90;99.90;;;;;;5056635;28;20276;-60
2023/11/28 03:09:59;;;;;;;7.47;5.80;;;4.90;99.90;;;;;;5056516;28;20489;-61
2023/11/28 03:12:26;;;;;;;6.03;5.53;;;4.80;99.90;;;;;;5056398;28;20449;-61
2023/11/28 03:14:53;;;;;;;6.20;5.70;;;4.80;99.90;;;;;;5056194;28;20449;-61
2023/11/28 03:17:19;;;;;;;7.20;6.53;;;4.90;99.90;;;;;;5056418;28;20444;-61
2023/11/28 03:19:47;;;;;;;5.77;5.23;;;4.80;99.90;;;;;;5056190;28;20457;-61
2023/11/28 03:22:14;;;;;;;7.13;6.43;;;4.80;99.90;;;;;;5056041;28;20433;-61
2023/11/28 03:24:41;;;;;;;7.20;6.60;;;4.80;99.90;;;;;;5055985;28;20947;-61
2023/11/28 03:27:08;;;;;;;7.50;6.83;;;4.80;99.90;;;;;;5056043;28;20936;-61
2023/11/28 03:29:35;;;;;;;7.77;7.00;;;4.80;99.90;;;;;;5056066;28;20486;-61
2023/11/28 03:32:02;;;;;;;7.53;6.93;;;4.80;99.90;;;;;;5056152;28;20464;-61
2023/11/28 03:34:29;;;;;;;8.60;7.90;;;4.90;99.90;;;;;;5055756;28;20950;-61
2023/11/28 03:36:57;;;;;;;7.80;7.20;;;4.90;99.90;;;;;;5055909;28;20800;-61
2023/11/28 03:39:24;;;;;;;7.23;6.60;;;4.80;99.90;;;;;;5055959;28;20496;-61
2023/11/28 03:41:51;;;;;;;8.50;7.60;;;4.80;99.90;;;;;;5055659;28;20917;-61
2023/11/28 03:44:18;;;;;;;9.20;8.40;;;4.80;99.90;;;;;;5055884;28;20479;-61
2023/11/28 03:46:46;;;;;;;9.60;8.73;;;4.80;99.90;;;;;;5055898;28;20437;-61
2023/11/28 03:49:12;;;;;;;10.20;9.20;;;4.80;99.90;;;;;;5055296;28;20492;-61
2023/11/28 03:51:39;;;;;;;10.77;9.63;;;4.90;99.90;;;;;;5055827;28;20467;-61
2023/11/28 03:54:07;;;;;;;10.27;9.20;;;4.90;99.90;;;;;;5055527;28;20445;-61
2023/11/28 03:56:34;;;;;;;10.53;9.33;;;4.90;99.90;;;;;;5055355;28;20951;-61
2023/11/28 03:59:01;;;;;;;10.57;9.57;;;4.90;99.90;;;;;;5055522;28;20454;-61
2023/11/28 04:01:27;;;;;;;13.67;12.37;;;4.90;99.90;;;;;;5055650;28;20449;-61
2023/11/28 04:03:54;;;;;;;12.83;11.53;;;4.90;99.90;;;;;;5055504;28;20468;-61
2023/11/28 04:06:21;;;;;;;11.80;10.80;;;4.80;99.90;;;;;;5055499;28;20445;-61
2023/11/28 04:08:48;;;;;;;12.40;10.90;;;4.80;99.90;;;;;;5054967;28;20452;-61
2023/11/28 04:11:16;;;;;;;12.50;11.27;;;4.80;99.90;;;;;;5055062;28;20855;-61
2023/11/28 04:13:43;;;;;;;12.60;11.40;;;4.70;99.90;;;;;;5054907;28;20457;-61
2023/11/28 04:16:09;;;;;;;14.90;13.60;;;4.70;99.90;;;;;;5055291;28;20449;-61
2023/11/28 04:18:36;;;;;;;15.10;11.23;;;4.70;99.90;;;;;;5055236;28;20445;-61
2023/11/28 04:21:03;;;;;;;13.20;12.00;;;4.70;99.90;;;;;;5054991;28;20469;-61
2023/11/28 04:23:30;;;;;;;12.40;11.20;;;4.80;99.90;;;;;;5055288;28;20445;-61
2023/11/28 04:25:56;;;;;;;12.80;11.60;;;4.70;99.90;;;;;;5055188;28;20446;-62
2023/11/28 04:28:24;;;;;;;11.00;10.10;;;4.80;99.90;;;;;;5055119;28;20449;-61
2023/11/28 04:30:51;;;;;;;10.90;9.90;;;4.70;99.90;;;;;;5055000;28;20489;-61
2023/11/28 04:33:18;;;;;;;11.60;10.60;;;4.80;99.90;;;;;;5055357;28;20438;-61
2023/11/28 04:35:44;;;;;;;13.43;12.23;;;4.80;99.90;;;;;;5054594;28;20936;-61
2023/11/28 04:38:11;;;;;;;11.30;10.40;;;4.80;99.90;;;;;;5054529;28;20943;-61
2023/11/28 04:40:38;;;;;;;10.77;9.87;;;4.70;99.90;;;;;;5054572;28;20963;-61
2023/11/28 04:43:04;;;;;;;11.40;10.50;;;4.70;99.90;;;;;;5054822;28;20450;-61
2023/11/28 04:45:32;;;;;;;12.03;10.93;;;4.60;99.90;;;;;;5054423;28;20442;-61
2023/11/28 04:47:59;;;;;;;13.57;10.40;;;4.60;99.90;;;;;;5054688;28;20449;-61
2023/11/28 04:50:26;;;;;;;11.07;10.17;;;4.60;99.90;;;;;;5054466;28;20481;-61
2023/11/28 04:52:52;;;;;;;10.27;9.47;;;4.50;99.90;;;;;;5054276;28;20437;-61
2023/11/28 04:55:19;;;;;;;11.07;10.17;;;4.50;99.90;;;;;;5054343;28;20442;-61
2023/11/28 04:57:46;;;;;;;11.53;10.50;;;4.50;99.90;;;;;;5054517;28;20477;-61
2023/11/28 05:00:15;;;;;;;12.13;11.03;;;4.60;99.90;;;;;;5054167;28;20963;-61
2023/11/28 05:02:43;;;;;;;11.47;10.57;;;4.60;99.90;;;;;;5055209;28;20458;-61
2023/11/28 05:05:10;;;;;;;13.07;11.87;;;4.60;99.90;;;;;;5054090;28;20932;-61
2023/11/28 05:07:37;;;;;;;21.60;19.30;;;4.70;99.90;;;;;;5053991;28;20990;-61
2023/11/28 05:10:04;;;;;;;22.37;19.67;;;4.70;99.90;;;;;;5054162;28;20485;-61
2023/11/28 05:12:32;;;;;;;13.90;12.67;;;4.70;99.90;;;;;;5054292;28;20462;-61
2023/11/28 05:14:58;;;;;;;17.83;16.03;;;4.70;99.90;;;;;;5053790;28;20485;-61
2023/11/28 05:17:25;;;;;;;14.73;13.37;;;4.70;99.90;;;;;;5054222;28;20513;-61
2023/11/28 05:19:53;;;;;;;12.53;11.43;;;4.70;99.90;;;;;;5053305;28;20458;-61
2023/11/28 05:22:20;;;;;;;13.43;12.23;;;4.70;99.90;;;;;;5053706;28;20445;-61
2023/11/28 05:24:46;;;;;;;12.77;11.60;;;4.70;99.90;;;;;;5054042;28;20448;-61
2023/11/28 05:27:13;;;;;;;12.83;11.73;;;4.70;99.90;;;;;;5054081;28;20437;-61
2023/11/28 05:29:40;;;;;;;15.50;14.00;;;4.80;99.90;;;;;;5053871;28;20508;-61
2023/11/28 05:32:07;;;;;;;13.40;12.10;;;4.80;99.90;;;;;;5053956;28;20442;-61
2023/11/28 05:34:34;;;;;;;14.07;12.67;;;4.70;99.90;;;;;;5053908;28;20444;-61
2023/11/28 05:37:02;;;;;;;14.83;12.60;;;4.70;99.90;;;;;;5054040;28;20445;-61
2023/11/28 05:39:29;;;;;;;13.50;12.10;;;4.80;99.90;;;;;;5053852;28;20461;-61
2023/11/28 05:41:56;;;;;;;12.27;11.03;;;4.80;99.90;;;;;;5053606;28;20828;-61
2023/11/28 05:44:22;;;;;;;13.73;12.27;;;4.80;99.90;;;;;;5053802;28;20480;-61
2023/11/28 05:46:49;;;;;;;12.37;11.20;;;4.70;99.90;;;;;;5053836;28;20449;-61
2023/11/28 05:49:16;;;;;;;11.57;10.57;;;4.70;99.90;;;;;;5053683;28;20454;-61
2023/11/28 05:51:43;;;;;;;12.17;10.87;;;4.70;99.90;;;;;;5053470;28;20492;-61
2023/11/28 05:54:11;;;;;;;13.03;11.73;;;4.70;99.90;;;;;;5053510;28;20445;-61
2023/11/28 05:56:38;;;;;;;13.73;12.33;;;4.70;99.90;;;;;;5053593;28;20461;-61
2023/11/28 05:59:05;;;;;;;13.00;10.00;;;4.60;99.90;;;;;;5055299;28;20461;-62
2023/11/28 06:01:32;;;;;;;11.53;10.47;;;4.60;99.90;;;;;;5073547;28;20452;-61
2023/11/28 06:03:59;;;;;;;12.63;11.43;;;4.50;99.90;;;;;;5073546;28;20440;-61
2023/11/28 06:06:25;;;;;;;13.03;11.53;;;4.60;99.90;;;;;;5073207;28;21000;-61
2023/11/28 06:08:53;;;;;;;11.77;10.67;;;4.60;99.90;;;;;;5073373;28;20447;-61
2023/11/28 06:11:22;;;;;;;10.77;9.73;;;4.60;99.90;;;;;;5073689;28;20563;-61
2023/11/28 06:13:49;;;;;;;11.70;9.60;;;4.60;99.90;;;;;;5073389;28;20514;-61
2023/11/28 06:16:15;;;;;;;11.07;9.97;;;4.60;99.90;;;;;;5073144;28;20809;-61
2023/11/28 06:18:42;;;;;;;10.97;9.67;;;4.60;99.90;;;;;;5073305;28;20444;-61
2023/11/28 06:21:09;;;;;;;12.60;11.50;;;4.60;99.90;;;;;;5073255;28;20464;-61
2023/11/28 06:23:36;;;;;;;13.43;11.10;;;4.60;99.90;;;;;;5073359;28;20436;-61
2023/11/28 06:26:03;;;;;;;12.43;11.30;;;4.60;99.90;;;;;;5072995;28;20437;-61
2023/11/28 06:28:31;;;;;;;12.00;10.90;;;4.60;99.90;;;;;;5073165;28;20445;-61
2023/11/28 06:30:58;;;;;;;12.57;11.30;;;4.60;99.90;;;;;;5074579;28;20480;-61
2023/11/28 06:33:24;;;;;;;12.33;11.13;;;4.60;99.90;;;;;;5077724;28;20813;-61
2023/11/28 06:35:51;;;;;;;12.30;11.10;;;4.70;99.90;;;;;;5077152;28;20452;-61
2023/11/28 06:38:17;;;;;;;13.63;12.23;;;4.70;99.90;;;;;;5077340;28;20445;-61
2023/11/28 06:40:44;;;;;;;12.90;11.60;;;4.70;99.90;;;;;;5077092;28;20469;-61
2023/11/28 06:43:11;;;;;;;12.50;11.37;;;4.70;99.90;;;;;;5077065;28;20452;-61
2023/11/28 06:45:39;;;;;;;11.10;10.00;;;4.60;99.90;;;;;;5077104;28;20468;-61
2023/11/28 06:48:07;;;;;;;12.20;11.00;;;4.60;99.90;;;;;;5077044;28;20480;-61
2023/11/28 06:50:34;;;;;;;11.63;10.50;;;4.50;99.90;;;;;;5076797;28;20479;-61
2023/11/28 06:53:01;;;;;;;12.13;10.93;;;4.50;99.90;;;;;;5076934;28;20813;-61
2023/11/28 06:55:28;;;;;;;11.70;9.93;;;4.50;99.90;;;;;;5076698;28;20818;-61
2023/11/28 06:57:54;;;;;;;10.23;9.23;;;4.50;99.90;;;;;;5076835;28;20445;-61
2023/11/28 07:00:21;;;;;;;11.20;8.90;;;4.40;99.90;;;;;;5076662;28;20510;-61
2023/11/28 07:02:50;;;;;;;8.67;7.77;;;4.40;99.90;;;;;;5076729;28;20449;-61
2023/11/28 07:05:17;;;;;;;8.50;7.60;;;4.40;99.90;;;;;;5076669;28;20444;-61
2023/11/28 07:07:44;;;;;;;7.60;7.00;;;4.40;99.90;;;;;;5076600;28;20445;-61
2023/11/28 07:10:11;;;;;;;9.43;8.50;;;4.40;99.90;;;;;;5076419;28;20477;-61
2023/11/28 07:12:37;;;;;;;7.83;7.13;;;4.40;99.90;;;;;;5076582;28;20444;-61
2023/11/28 07:15:05;;;;;;;7.77;7.07;;;4.40;99.90;;;;;;5075895;28;20460;-61
2023/11/28 07:17:32;;;;;;;6.77;6.17;;;4.40;99.90;;;;;;5076116;28;20451;-61
2023/11/28 07:20:00;;;;;;;7.13;6.30;;;4.40;99.90;;;;;;5076294;28;20499;-61
2023/11/28 07:22:28;;;;;;;6.10;5.50;;;4.30;99.90;;;;;;5076077;28;20966;-61
2023/11/28 07:24:54;;;;;;;6.17;5.50;;;4.30;99.90;;;;;;5075952;28;20484;-61
2023/11/28 07:27:21;;;;;;;6.30;5.70;;;4.30;99.90;;;;;;5075917;28;20856;-61
2023/11/28 07:29:48;;;;;;;6.10;5.40;;;4.30;99.90;;;;;;5076161;28;20829;-61
2023/11/28 07:32:14;;;;;;;6.30;5.50;;;4.20;99.90;;;;;;5076046;28;20476;-61
2023/11/28 07:34:41;;;;;;;5.57;4.97;;;4.20;99.90;;;;;;5076030;28;20448;-61
2023/11/28 07:37:09;;;;;;;4.87;4.37;;;4.20;99.80;;;;;;5076079;28;20456;-61
2023/11/28 07:39:36;;;;;;;5.13;4.73;;;4.10;99.90;;;;;;5075698;28;20522;-61
2023/11/28 07:42:03;;;;;;;5.03;4.63;;;4.10;99.90;;;;;;5075405;28;20439;-61
2023/11/28 07:44:30;;;;;;;5.00;4.40;;;4.10;99.90;;;;;;5075966;28;20448;-61
2023/11/28 07:46:56;;;;;;;5.67;5.17;;;4.10;99.90;;;;;;5075881;28;20440;-61
2023/11/28 07:49:23;;;;;;;5.30;4.60;;;4.10;99.90;;;;;;5075763;28;20453;-61
2023/11/28 07:51:50;;;;;;;5.07;4.57;;;4.10;99.90;;;;;;5075806;28;20484;-61
2023/11/28 07:54:18;;;;;;;11.87;4.90;;;4.20;99.90;;;;;;5075687;28;20480;-61
2023/11/28 07:56:44;;;;;;;10.00;6.33;;;4.20;99.90;;;;;;5075326;28;20938;-61
2023/11/28 07:59:11;;;;;;;4.90;4.50;;;4.20;99.90;;;;;;5075732;28;20460;-61
2023/11/28 08:01:39;;;;;;;6.03;5.37;;;4.20;99.90;;;;;;5076117;28;20448;-61
2023/11/28 08:04:05;;;;;;;6.13;4.93;;;4.20;99.90;;;;;;5075315;28;20452;-61
2023/11/28 08:06:33;;;;;;;4.73;4.30;;;4.20;99.80;;;;;;5075554;28;20449;-61
2023/11/28 08:09:00;;;;;;;4.90;3.97;;;4.20;99.70;;;;;;5075398;28;20803;-61
2023/11/28 08:11:28;;;;;;;5.80;5.07;;;4.20;99.70;;;;;;5075404;28;20480;-61
2023/11/28 08:13:54;;;;;;;4.97;4.50;;;4.20;99.90;;;;;;5074908;28;20535;-61
2023/11/28 08:16:23;;;;;;;4.40;4.00;;;4.30;99.90;;;;;;5074919;28;20979;-61
2023/11/28 08:18:50;;;;;;;5.77;4.80;;;4.30;99.90;;;;;;5075325;28;20931;-61
2023/11/28 08:21:16;;;;;;;6.07;5.57;;;4.40;99.90;;;;;;5075218;28;20452;-61
2023/11/28 08:23:44;;;;;;;4.50;4.03;;;4.50;99.90;;;;;;5074913;28;20946;-61
2023/11/28 08:26:11;;;;;;;4.47;4.03;;;4.50;99.80;;;;;;5074881;28;20935;-61
2023/11/28 08:28:39;;;;;;;5.63;5.10;;;4.50;99.60;;;;;;5075136;28;20452;-61
2023/11/28 08:31:08;;;;;;;5.20;4.27;;;4.50;99.50;;;;;;5074635;28;20481;-61
2023/11/28 08:33:35;;;;;;;5.07;4.00;;;4.60;99.60;;;;;;5075012;28;20499;-61
2023/11/28 08:36:02;;;;;;;5.87;5.17;;;4.60;99.40;;;;;;5074964;28;20443;-61
2023/11/28 08:38:29;;;;;;;6.90;5.43;;;4.60;99.30;;;;;;5075103;28;20448;-61
2023/11/28 08:40:56;;;;;;;5.73;4.83;;;4.60;99.20;;;;;;5074870;28;20510;-61
2023/11/28 08:43:23;;;;;;;4.97;4.07;;;4.70;99.20;;;;;;5074867;28;20483;-61
2023/11/28 08:45:51;;;;;;;4.80;4.30;;;4.60;99.00;;;;;;5074984;28;20449;-61
2023/11/28 08:48:18;;;;;;;4.37;3.97;;;4.70;99.10;;;;;;5074633;28;20447;-61
2023/11/28 08:50:45;;;;;;;4.80;4.40;;;4.70;99.00;;;;;;5074605;28;20481;-61
2023/11/28 08:53:11;;;;;;;5.50;5.00;;;4.80;99.00;;;;;;5074908;28;20456;-61
2023/11/28 08:55:38;;;;;;;5.87;5.27;;;4.80;98.70;;;;;;5073415;28;20445;-61
2023/11/28 08:58:05;;;;;;;5.03;4.53;;;4.80;98.70;;;;;;5074757;28;20441;-61
2023/11/28 09:00:32;;;;;;;5.03;4.53;;;4.80;98.60;;;;;;5058865;28;21021;-61
2023/11/28 09:03:01;;;;;;;4.33;3.83;;;4.80;98.40;;;;;;5054588;28;20484;-61
2023/11/28 09:05:28;;;;;;;3.73;3.43;;;4.80;98.30;;;;;;5054148;28;20944;-61
2023/11/28 09:07:57;;;;;;;3.80;3.40;;;4.80;98.30;;;;;;5054486;28;20453;-61
2023/11/28 09:10:23;;;;;;;4.43;4.00;;;4.80;98.30;;;;;;5054327;28;20614;-61
2023/11/28 09:12:50;;;;;;;5.20;3.87;;;4.80;98.40;;;;;;5054416;28;20434;-61
2023/11/28 09:15:17;;;;;;;3.50;3.20;;;4.80;98.20;;;;;;5053850;28;20456;-61
2023/11/28 09:17:44;;;;;;;4.23;3.80;;;4.90;98.30;;;;;;5054658;28;20453;-61
2023/11/28 09:20:12;;;;;;;3.90;3.50;;;4.90;98.30;;;;;;5054230;28;20458;-62
2023/11/28 09:22:40;;;;;;;3.93;3.50;;;4.90;98.20;;;;;;5054204;28;20440;-62
2023/11/28 09:25:09;;;;;;;4.27;3.57;;;4.90;98.20;;;;;;5053905;28;20872;-61
2023/11/28 09:27:36;;;;;;;3.63;3.33;;;5.00;98.30;;;;;;5053878;28;20485;-61
2023/11/28 09:30:03;;;;;;;4.07;3.67;;;5.00;98.20;;;;;;5054107;28;20468;-61
2023/11/28 09:32:29;;;;;;;3.77;3.47;;;5.00;98.10;;;;;;5054238;28;20568;-62
2023/11/28 09:34:56;;;;;;;6.20;3.97;;;5.00;98.00;;;;;;5053686;28;20969;-62
2023/11/28 09:37:24;;;;;;;3.73;3.43;;;4.90;98.00;;;;;;5053906;28;20959;-61
2023/11/28 09:39:51;;;;;;;4.77;3.60;;;5.00;97.90;;;;;;5053916;28;20818;-61
2023/11/28 09:42:22;;;;;;;4.40;4.00;;;5.00;98.10;;;;;;5053816;28;20445;-61
2023/11/28 09:44:49;;;;;;;4.60;3.77;;;5.00;98.30;;;;;;5053604;28;20798;-61
2023/11/28 09:47:20;;;;;;;3.67;3.37;;;5.10;98.40;;;;;;5053715;28;20449;-61
2023/11/28 09:49:49;;;;;;;14.70;3.07;;;5.10;98.20;;;;;;5053617;28;20581;-61
2023/11/28 09:52:20;;;;;;;3.63;3.33;;;5.20;98.10;;;;;;5053570;28;20517;-61
2023/11/28 09:54:52;;;;;;;3.53;3.23;;;5.30;98.40;;;;;;5053826;28;20438;-61
2023/11/28 09:57:20;;;;;;;4.20;3.80;;;5.30;98.30;;;;;;5053547;28;20939;-61
2023/11/28 09:59:50;;;;;;;4.60;3.50;;;5.40;98.20;;;;;;5053462;28;20473;-61
2023/11/28 10:02:17;;;;;;;5.00;3.90;;;5.50;97.90;;;;;;5053438;28;20449;-61
2023/11/28 10:04:44;;;;;;;4.30;3.90;;;5.60;97.90;;;;;;5053553;28;20469;-61
2023/11/28 10:07:12;;;;;;;4.90;3.53;;;5.70;97.40;;;;;;5053079;28;20491;-61
2023/11/28 10:09:42;;;;;;;5.40;4.30;;;5.70;97.10;;;;;;5053281;28;20462;-61
2023/11/28 10:12:10;;;;;;;4.47;4.07;;;5.80;96.90;;;;;;5053584;28;20474;-61
2023/11/28 10:14:39;;;;;;;4.97;4.57;;;5.90;96.80;;;;;;5053001;28;20461;-61
2023/11/28 10:17:10;;;;;;;4.40;4.00;;;6.00;96.80;;;;;;5053543;28;20442;-61
2023/11/28 10:19:36;;;;;;;4.67;3.90;;;6.10;96.60;;;;;;5053151;28;20470;-61
2023/11/28 10:22:05;;;;;;;4.80;4.40;;;6.10;96.30;;;;;;5053005;28;20442;-61
2023/11/28 10:24:33;;;;;;;5.20;3.93;;;6.10;95.80;;;;;;5053298;28;20506;-61
2023/11/28 10:27:00;;;;;;;5.27;4.77;;;6.10;95.70;;;;;;5052849;28;20958;-61
2023/11/28 10:29:30;;;;;;;4.43;4.03;;;6.10;95.60;;;;;;5053065;28;20987;-61
2023/11/28 10:31:57;;;;;;;6.27;5.30;;;6.10;95.70;;;;;;5053149;28;20520;-61
2023/11/28 10:34:23;;;;;;;4.50;4.10;;;6.10;95.90;;;;;;5053016;28;20441;-61
2023/11/28 10:36:50;;;;;;;3.70;3.20;;;6.10;95.90;;;;;;5052987;28;20441;-61
2023/11/28 10:39:19;;;;;;;5.73;4.30;;;6.00;95.00;;;;;;5052997;28;20465;-61
2023/11/28 10:41:45;;;;;;;4.60;4.20;;;5.90;95.30;;;;;;5053064;28;20499;-61
2023/11/28 10:44:12;;;;;;;4.93;4.43;;;5.90;95.60;;;;;;5053019;28;20449;-61
2023/11/28 10:46:41;;;;;;;5.37;4.43;;;5.90;95.70;;;;;;5053017;28;20503;-61
2023/11/28 10:49:07;;;;;;;5.10;4.33;;;5.90;95.80;;;;;;5052916;28;20800;-61
2023/11/28 10:51:35;;;;;;;4.63;4.23;;;5.90;95.70;;;;;;5052843;28;20485;-61
2023/11/28 10:54:07;;;;;;;4.80;4.40;;;5.90;95.60;;;;;;5052916;28;20449;-61
2023/11/28 10:56:41;;;;;;;5.07;4.57;;;5.90;95.60;;;;;;5052843;28;20516;-61
2023/11/28 10:59:14;;;;;;;4.53;4.13;;;5.90;95.60;;;;;;5052841;28;20469;-61
2023/11/28 11:01:43;;;;;;;4.33;3.93;;;5.90;95.70;;;;;;5052944;28;20418;-61
2023/11/28 11:04:11;;;;;;;3.97;3.60;;;5.90;95.80;;;;;;5052529;28;21001;-61
2023/11/28 11:06:39;;;;;;;6.27;4.33;;;5.80;95.50;;;;;;5052788;28;20445;-61
2023/11/28 11:09:07;;;;;;;5.53;4.43;;;5.80;95.20;;;;;;5052731;28;20453;-61
2023/11/28 11:11:35;;;;;;;4.73;4.33;;;5.90;95.40;;;;;;5052679;28;20853;-61
2023/11/28 11:14:10;;;;;;;4.43;4.03;;;5.90;95.50;;;;;;5052404;28;20456;-61
2023/11/28 11:16:39;;;;;;;4.90;4.50;;;5.90;95.40;;;;;;5052582;28;20425;-61
2023/11/28 11:19:08;;;;;;;4.63;4.23;;;5.90;95.40;;;;;;5055711;28;20453;-61
2023/11/28 11:21:40;;;;;;;4.23;3.93;;;6.00;95.60;;;;;;5056361;28;20445;-61
2023/11/28 11:24:14;;;;;;;19.43;4.33;;;6.00;95.40;;;;;;5056453;28;20422;-61
2023/11/28 11:26:41;;;;;;;4.20;3.80;;;5.90;95.40;;;;;;5056195;28;20426;-61
2023/11/28 11:29:19;;;;;;;5.33;4.60;;;6.00;95.40;;;;;;5056216;28;20472;-61
2023/11/28 11:31:48;;;;;;;4.47;4.07;;;5.90;95.30;;;;;;5056217;28;20492;-61
2023/11/28 11:34:34;;;;;;;3.40;3.10;;;5.90;95.40;;;;;;5056246;28;20449;-61
2023/11/28 11:37:11;;;;;;;4.20;3.83;;;5.90;95.10;;;;;;5056021;28;20461;-61
2023/11/28 11:39:40;;;;;;;4.37;4.00;;;5.90;94.80;;;;;;5056009;28;20465;-61
2023/11/28 11:42:12;;;;;;;4.30;3.70;;;5.90;94.60;;;;;;5055656;28;20955;-61
2023/11/28 11:44:42;;;;;;;3.23;2.97;;;5.90;94.60;;;;;;5055889;28;20446;-61
2023/11/28 11:47:21;;;;;;;3.00;2.60;;;5.90;93.80;;;;;;5056821;28;20848;-61
2023/11/28 11:49:50;;;;;;;3.30;3.10;;;5.90;93.80;;;;;;5056052;28;20476;-60
2023/11/28 11:52:19;;;;;;;3.80;3.47;;;5.90;93.80;;;;;;5055427;28;20564;-61
2023/11/28 11:54:47;;;;;;;4.37;3.97;;;5.90;93.90;;;;;;5055927;28;20481;-61
2023/11/28 11:57:14;;;;;;;5.13;4.63;;;5.90;93.80;;;;;;5055723;28;20449;-61
2023/11/28 11:59:42;;;;;;;3.53;3.20;;;5.90;93.90;;;;;;5055808;28;20481;-61
2023/11/28 12:02:09;;;;;;;2.90;2.47;;;5.90;94.00;;;;;;5055738;28;20487;-61
2023/11/28 12:04:42;;;;;;;2.97;2.77;;;5.90;94.00;;;;;;5055877;28;20473;-61
2023/11/28 12:07:11;;;;;;;3.40;2.77;;;5.90;93.30;;;;;;5055635;28;20430;-61
2023/11/28 12:09:38;;;;;;;3.57;3.27;;;5.90;93.20;;;;;;5055214;28;21050;-61
2023/11/28 12:12:06;;;;;;;3.53;3.23;;;5.90;93.50;;;;;;5055394;28;20546;-61
2023/11/28 12:14:33;;;;;;;3.60;3.20;;;5.90;93.80;;;;;;5055251;28;20460;-61
2023/11/28 12:17:01;;;;;;;3.70;3.40;;;6.00;93.80;;;;;;5055332;28;20457;-61
2023/11/28 12:19:27;;;;;;;3.77;3.43;;;6.00;93.90;;;;;;5055005;28;21044;-61
2023/11/28 12:21:54;;;;;;;3.70;3.40;;;6.10;93.70;;;;;;5055355;28;20444;-61
2023/11/28 12:24:22;;;;;;;4.27;3.97;;;6.20;93.10;;;;;;5055306;28;20857;-61
2023/11/28 12:26:49;;;;;;;3.23;3.03;;;6.30;93.00;;;;;;5055193;28;20442;-61
2023/11/28 12:29:16;;;;;;;3.60;3.30;;;6.40;92.40;;;;;;5055013;28;20488;-61
2023/11/28 12:31:44;;;;;;;3.83;3.40;;;6.40;91.80;;;;;;5055088;28;20442;-61
2023/11/28 12:34:10;;;;;;;5.10;4.40;;;6.50;91.00;;;;;;5055213;28;20441;-61
2023/11/28 12:36:43;;;;;;;8.23;7.53;;;6.50;90.50;;;;;;5054940;28;20441;-61
2023/11/28 12:39:14;;;;;;;3.60;3.30;;;6.60;90.40;;;;;;5054895;28;20461;-61
2023/11/28 12:41:42;;;;;;;3.47;3.17;;;6.90;90.30;;;;;;5054938;28;20454;-61
2023/11/28 12:44:09;;;;;;;3.53;3.10;;;7.30;89.00;;;;;;5054511;28;20875;-61
2023/11/28 12:46:38;;;;;;;4.10;3.80;;;7.90;87.30;;;;;;5054771;28;20442;-61
2023/11/28 12:49:06;;;;;;;4.90;4.13;;;8.40;85.00;;;;;;5054643;28;20442;-61
2023/11/28 12:51:32;;;;;;;3.33;3.10;;;8.80;82.10;;;;;;5054633;28;20445;-61